sensor_id;sensor_type;location;lat;lon;timestamp;pressure;altitude;pressure_sealevel;temperature;humidity
65832;BME280;52593;42.648;23.332;2024-03-02T00:00:12;93955.94;;;7.38;91.98
65832;BME280;52593;42.648;23.332;2024-03-02T00:02:44;93955.03;;;7.30;92.15
65832;BME280;52593;42.648;23.332;2024-03-02T00:05:15;93952.53;;;7.29;92.18
65832;BME280;52593;42.648;23.332;2024-03-02T00:07:41;93959.66;;;7.28;91.51
65832;BME280;52593;42.648;23.332;2024-03-02T00:10:11;93950.44;;;7.16;92.05
65832;BME280;52593;42.648;23.332;2024-03-02T00:12:41;93961.34;;;7.29;92.23
65832;BME280;52593;42.648;23.332;2024-03-02T00:17:42;93950.28;;;7.18;92.21
65832;BME280;52593;42.648;23.332;2024-03-02T00:20:09;93958.38;;;7.24;92.24
65832;BME280;52593;42.648;23.332;2024-03-02T00:22:35;93943.94;;;7.19;92.78
65832;BME280;52593;42.648;23.332;2024-03-02T00:25:03;93938.31;;;7.13;92.77
65832;BME280;52593;42.648;23.332;2024-03-02T00:27:29;93946.09;;;7.23;92.97
65832;BME280;52593;42.648;23.332;2024-03-02T00:29:54;93928.88;;;7.11;93.30
65832;BME280;52593;42.648;23.332;2024-03-02T00:32:21;93933.31;;;7.19;93.33
65832;BME280;52593;42.648;23.332;2024-03-02T00:34:46;93941.13;;;7.20;92.26
65832;BME280;52593;42.648;23.332;2024-03-02T00:37:12;93932.88;;;7.07;93.47
65832;BME280;52593;42.648;23.332;2024-03-02T00:39:37;93943.00;;;7.11;93.33
65832;BME280;52593;42.648;23.332;2024-03-02T00:42:03;93924.44;;;7.26;93.44
65832;BME280;52593;42.648;23.332;2024-03-02T00:44:29;93942.34;;;7.32;92.38
65832;BME280;52593;42.648;23.332;2024-03-02T00:47:00;93924.25;;;7.28;92.51
65832;BME280;52593;42.648;23.332;2024-03-02T00:49:26;93928.53;;;7.14;92.64
65832;BME280;52593;42.648;23.332;2024-03-02T00:51:54;93929.09;;;7.01;94.18
65832;BME280;52593;42.648;23.332;2024-03-02T00:54:25;93932.34;;;7.11;94.11
65832;BME280;52593;42.648;23.332;2024-03-02T00:56:52;93929.69;;;7.11;93.63
65832;BME280;52593;42.648;23.332;2024-03-02T00:59:17;93941.13;;;7.20;93.78
65832;BME280;52593;42.648;23.332;2024-03-02T01:01:43;93934.91;;;7.28;93.28
65832;BME280;52593;42.648;23.332;2024-03-02T01:04:09;93931.59;;;7.26;93.62
65832;BME280;52593;42.648;23.332;2024-03-02T01:06:35;93943.03;;;7.49;91.67
65832;BME280;52593;42.648;23.332;2024-03-02T01:09:00;93943.56;;;7.45;91.41
65832;BME280;52593;42.648;23.332;2024-03-02T01:11:26;93933.44;;;7.63;90.41
65832;BME280;52593;42.648;23.332;2024-03-02T01:13:51;93918.81;;;7.59;90.13
65832;BME280;52593;42.648;23.332;2024-03-02T01:16:17;93917.59;;;7.47;89.83
65832;BME280;52593;42.648;23.332;2024-03-02T01:18:43;93911.81;;;7.43;90.49
65832;BME280;52593;42.648;23.332;2024-03-02T01:21:08;93908.34;;;7.43;90.57
65832;BME280;52593;42.648;23.332;2024-03-02T01:23:34;93915.25;;;7.52;91.02
65832;BME280;52593;42.648;23.332;2024-03-02T01:25:59;93909.06;;;7.52;90.70
65832;BME280;52593;42.648;23.332;2024-03-02T01:28:25;93910.91;;;7.51;91.23
65832;BME280;52593;42.648;23.332;2024-03-02T01:30:50;93905.13;;;7.47;91.25
65832;BME280;52593;42.648;23.332;2024-03-02T01:33:18;93911.69;;;7.60;91.14
65832;BME280;52593;42.648;23.332;2024-03-02T01:35:44;93899.38;;;7.59;91.22
65832;BME280;52593;42.648;23.332;2024-03-02T01:38:10;93910.22;;;7.72;90.50
65832;BME280;52593;42.648;23.332;2024-03-02T01:40:36;93904.69;;;7.59;90.87
65832;BME280;52593;42.648;23.332;2024-03-02T01:43:03;93905.31;;;7.46;91.58
65832;BME280;52593;42.648;23.332;2024-03-02T01:45:29;93912.44;;;7.45;92.37
65832;BME280;52593;42.648;23.332;2024-03-02T01:47:55;93907.34;;;7.59;92.14
65832;BME280;52593;42.648;23.332;2024-03-02T01:50:31;93904.06;;;7.72;91.41
65832;BME280;52593;42.648;23.332;2024-03-02T01:52:58;93896.53;;;7.75;91.21
65832;BME280;52593;42.648;23.332;2024-03-02T01:55:23;93902.28;;;7.64;91.66
65832;BME280;52593;42.648;23.332;2024-03-02T01:57:49;93906.53;;;7.73;91.79
65832;BME280;52593;42.648;23.332;2024-03-02T02:00:22;93893.13;;;7.66;91.62
65832;BME280;52593;42.648;23.332;2024-03-02T02:02:49;93903.31;;;7.63;91.82
65832;BME280;52593;42.648;23.332;2024-03-02T02:05:15;93904.59;;;7.67;91.77
65832;BME280;52593;42.648;23.332;2024-03-02T02:07:41;93897.69;;;7.58;91.77
65832;BME280;52593;42.648;23.332;2024-03-02T02:10:09;93897.88;;;7.56;91.88
65832;BME280;52593;42.648;23.332;2024-03-02T02:12:35;93901.16;;;7.43;93.29
65832;BME280;52593;42.648;23.332;2024-03-02T02:15:00;93898.50;;;7.43;92.45
65832;BME280;52593;42.648;23.332;2024-03-02T02:17:26;93882.81;;;7.34;93.08
65832;BME280;52593;42.648;23.332;2024-03-02T02:19:51;93892.00;;;7.46;93.18
65832;BME280;52593;42.648;23.332;2024-03-02T02:22:17;93899.00;;;7.62;92.36
65832;BME280;52593;42.648;23.332;2024-03-02T02:24:43;93898.00;;;7.63;91.88
65832;BME280;52593;42.648;23.332;2024-03-02T02:27:09;93901.84;;;7.60;91.86
65832;BME280;52593;42.648;23.332;2024-03-02T02:29:40;93899.00;;;7.62;92.07
65832;BME280;52593;42.648;23.332;2024-03-02T02:32:06;93902.03;;;7.59;92.50
65832;BME280;52593;42.648;23.332;2024-03-02T02:34:32;93900.66;;;7.78;91.71
65832;BME280;52593;42.648;23.332;2024-03-02T02:36:58;93886.31;;;7.64;91.40
65832;BME280;52593;42.648;23.332;2024-03-02T02:39:24;93896.53;;;7.60;91.96
65832;BME280;52593;42.648;23.332;2024-03-02T02:41:49;93899.28;;;7.67;91.30
65832;BME280;52593;42.648;23.332;2024-03-02T02:44:15;93895.78;;;7.66;91.39
65832;BME280;52593;42.648;23.332;2024-03-02T02:46:41;93896.38;;;7.77;91.14
65832;BME280;52593;42.648;23.332;2024-03-02T02:49:06;93901.94;;;7.67;91.79
65832;BME280;52593;42.648;23.332;2024-03-02T02:51:32;93896.59;;;7.67;91.89
65832;BME280;52593;42.648;23.332;2024-03-02T02:53:58;93904.53;;;7.75;91.26
65832;BME280;52593;42.648;23.332;2024-03-02T02:56:23;93904.59;;;7.52;92.95
65832;BME280;52593;42.648;23.332;2024-03-02T02:58:49;93900.03;;;7.38;93.36
65832;BME280;52593;42.648;23.332;2024-03-02T03:01:17;93898.41;;;7.52;93.32
65832;BME280;52593;42.648;23.332;2024-03-02T03:03:44;93901.72;;;7.39;94.34
65832;BME280;52593;42.648;23.332;2024-03-02T03:06:10;93895.25;;;7.33;94.97
65832;BME280;52593;42.648;23.332;2024-03-02T03:08:35;93900.03;;;7.38;94.49
65832;BME280;52593;42.648;23.332;2024-03-02T03:11:00;93902.22;;;7.57;94.28
65832;BME280;52593;42.648;23.332;2024-03-02T03:13:26;93899.38;;;7.59;93.94
65832;BME280;52593;42.648;23.332;2024-03-02T03:15:52;93898.78;;;7.48;94.33
65832;BME280;52593;42.648;23.332;2024-03-02T03:18:18;93902.66;;;7.61;94.48
65832;BME280;52593;42.648;23.332;2024-03-02T03:20:44;93898.00;;;7.63;93.67
65832;BME280;52593;42.648;23.332;2024-03-02T03:23:09;93900.22;;;7.36;95.55
65832;BME280;52593;42.648;23.332;2024-03-02T03:25:35;93911.53;;;7.38;96.36
65832;BME280;52593;42.648;23.332;2024-03-02T03:28:00;93896.47;;;7.30;96.04
65832;BME280;52593;42.648;23.332;2024-03-02T03:30:27;93904.28;;;7.47;96.16
65832;BME280;52593;42.648;23.332;2024-03-02T03:32:52;93905.78;;;7.49;95.48
65832;BME280;52593;42.648;23.332;2024-03-02T03:35:17;93899.63;;;7.64;95.91
65832;BME280;52593;42.648;23.332;2024-03-02T03:37:43;93902.28;;;7.64;95.77
65832;BME280;52593;42.648;23.332;2024-03-02T03:40:10;93901.13;;;7.81;92.90
65832;BME280;52593;42.648;23.332;2024-03-02T03:42:36;93908.00;;;7.76;93.00
65832;BME280;52593;42.648;23.332;2024-03-02T03:45:02;93904.56;;;7.37;96.37
65832;BME280;52593;42.648;23.332;2024-03-02T03:47:28;93899.88;;;7.39;95.58
65832;BME280;52593;42.648;23.332;2024-03-02T03:49:53;93913.25;;;7.31;96.54
65832;BME280;52593;42.648;23.332;2024-03-02T03:52:19;93902.63;;;7.31;96.86
65832;BME280;52593;42.648;23.332;2024-03-02T03:54:44;93902.06;;;7.36;96.86
65832;BME280;52593;42.648;23.332;2024-03-02T03:57:10;93902.16;;;7.42;96.40
65832;BME280;52593;42.648;23.332;2024-03-02T03:59:35;93902.00;;;7.44;96.23
65832;BME280;52593;42.648;23.332;2024-03-02T04:02:03;93901.56;;;7.55;96.00
65832;BME280;52593;42.648;23.332;2024-03-02T04:04:28;93898.25;;;7.53;94.81
65832;BME280;52593;42.648;23.332;2024-03-02T04:06:54;93900.91;;;7.53;94.58
65832;BME280;52593;42.648;23.332;2024-03-02T04:09:19;93911.09;;;7.49;94.96
65832;BME280;52593;42.648;23.332;2024-03-02T04:11:45;93909.25;;;7.35;96.04
65832;BME280;52593;42.648;23.332;2024-03-02T04:14:11;93906.22;;;7.38;96.94
65832;BME280;52593;42.648;23.332;2024-03-02T04:16:38;93907.09;;;7.07;96.89
65832;BME280;52593;42.648;23.332;2024-03-02T04:19:04;93898.03;;;7.02;98.39
65832;BME280;52593;42.648;23.332;2024-03-02T04:21:30;93903.91;;;7.12;98.57
65832;BME280;52593;42.648;23.332;2024-03-02T04:23:55;93902.97;;;7.28;97.24
65832;BME280;52593;42.648;23.332;2024-03-02T04:26:25;93905.00;;;7.26;97.67
65832;BME280;52593;42.648;23.332;2024-03-02T04:28:53;93906.78;;;7.48;96.24
65832;BME280;52593;42.648;23.332;2024-03-02T04:31:19;93911.91;;;7.35;96.75
65832;BME280;52593;42.648;23.332;2024-03-02T04:33:45;93913.25;;;7.31;97.44
65832;BME280;52593;42.648;23.332;2024-03-02T04:36:10;93911.59;;;7.30;97.37
65832;BME280;52593;42.648;23.332;2024-03-02T04:38:36;93903.06;;;7.35;96.64
65832;BME280;52593;42.648;23.332;2024-03-02T04:41:02;93912.06;;;7.34;96.73
65832;BME280;52593;42.648;23.332;2024-03-02T04:43:27;93918.13;;;7.42;96.79
65832;BME280;52593;42.648;23.332;2024-03-02T04:45:53;93919.88;;;7.35;96.75
65832;BME280;52593;42.648;23.332;2024-03-02T04:48:18;93922.19;;;7.38;97.80
65832;BME280;52593;42.648;23.332;2024-03-02T04:50:44;93908.25;;;7.51;98.08
65832;BME280;52593;42.648;23.332;2024-03-02T04:53:10;93914.97;;;7.62;96.77
65832;BME280;52593;42.648;23.332;2024-03-02T04:55:35;93919.94;;;7.65;96.42
65832;BME280;52593;42.648;23.332;2024-03-02T04:58:04;93919.47;;;7.61;97.34
65832;BME280;52593;42.648;23.332;2024-03-02T05:00:29;93917.72;;;7.68;97.38
65832;BME280;52593;42.648;23.332;2024-03-02T05:02:55;93917.72;;;7.54;98.54
65832;BME280;52593;42.648;23.332;2024-03-02T05:05:20;93920.25;;;7.32;100.00
65832;BME280;52593;42.648;23.332;2024-03-02T05:07:46;93920.28;;;7.24;100.00
65832;BME280;52593;42.648;23.332;2024-03-02T05:10:11;93935.97;;;7.19;100.00
65832;BME280;52593;42.648;23.332;2024-03-02T05:12:37;93934.41;;;7.01;100.00
65832;BME280;52593;42.648;23.332;2024-03-02T05:15:09;93935.63;;;7.22;100.00
65832;BME280;52593;42.648;23.332;2024-03-02T05:17:39;93928.38;;;7.07;100.00
65832;BME280;52593;42.648;23.332;2024-03-02T05:20:07;93940.34;;;7.11;100.00
65832;BME280;52593;42.648;23.332;2024-03-02T05:22:34;93935.25;;;7.25;100.00
65832;BME280;52593;42.648;23.332;2024-03-02T05:25:00;93933.94;;;7.21;100.00
65832;BME280;52593;42.648;23.332;2024-03-02T05:27:29;93943.16;;;6.87;100.00
65832;BME280;52593;42.648;23.332;2024-03-02T05:29:54;93952.03;;;6.79;100.00
65832;BME280;52593;42.648;23.332;2024-03-02T05:32:20;93948.03;;;6.75;100.00
65832;BME280;52593;42.648;23.332;2024-03-02T05:34:45;93953.47;;;6.58;100.00
65832;BME280;52593;42.648;23.332;2024-03-02T05:37:11;93957.28;;;6.56;100.00
65832;BME280;52593;42.648;23.332;2024-03-02T05:39:36;93955.69;;;6.47;100.00
65832;BME280;52593;42.648;23.332;2024-03-02T05:42:02;93971.03;;;6.68;100.00
65832;BME280;52593;42.648;23.332;2024-03-02T05:44:28;93966.97;;;6.80;100.00
65832;BME280;52593;42.648;23.332;2024-03-02T05:46:54;93970.22;;;6.90;100.00
65832;BME280;52593;42.648;23.332;2024-03-02T05:49:20;93978.53;;;6.95;100.00
65832;BME280;52593;42.648;23.332;2024-03-02T05:51:46;93964.91;;;7.13;100.00
65832;BME280;52593;42.648;23.332;2024-03-02T05:54:11;93967.72;;;7.20;100.00
65832;BME280;52593;42.648;23.332;2024-03-02T05:56:37;93971.09;;;6.83;100.00
65832;BME280;52593;42.648;23.332;2024-03-02T05:59:02;93980.88;;;6.90;100.00
65832;BME280;52593;42.648;23.332;2024-03-02T06:01:47;93963.84;;;7.23;100.00
65832;BME280;52593;42.648;23.332;2024-03-02T06:04:13;93967.84;;;7.27;100.00
65832;BME280;52593;42.648;23.332;2024-03-02T06:06:39;93969.31;;;7.06;100.00
65832;BME280;52593;42.648;23.332;2024-03-02T06:09:05;93973.31;;;7.02;100.00
65832;BME280;52593;42.648;23.332;2024-03-02T06:11:36;93972.25;;;7.11;100.00
65832;BME280;52593;42.648;23.332;2024-03-02T06:14:02;93978.19;;;6.99;100.00
65832;BME280;52593;42.648;23.332;2024-03-02T06:16:28;93970.91;;;6.92;100.00
65832;BME280;52593;42.648;23.332;2024-03-02T06:18:55;93967.66;;;7.05;100.00
65832;BME280;52593;42.648;23.332;2024-03-02T06:21:25;93975.34;;;7.00;100.00
65832;BME280;52593;42.648;23.332;2024-03-02T06:23:51;93964.88;;;6.99;100.00
65832;BME280;52593;42.648;23.332;2024-03-02T06:26:17;93987.25;;;7.04;100.00
65832;BME280;52593;42.648;23.332;2024-03-02T06:28:43;93978.72;;;7.17;100.00
65832;BME280;52593;42.648;23.332;2024-03-02T06:31:09;93971.09;;;7.37;100.00
65832;BME280;52593;42.648;23.332;2024-03-02T06:33:35;93972.75;;;7.38;100.00
65832;BME280;52593;42.648;23.332;2024-03-02T06:36:01;93982.81;;;7.28;100.00
65832;BME280;52593;42.648;23.332;2024-03-02T06:38:27;93988.06;;;7.13;100.00
65832;BME280;52593;42.648;23.332;2024-03-02T06:40:52;93976.44;;;7.06;100.00
65832;BME280;52593;42.648;23.332;2024-03-02T06:43:18;93982.91;;;7.11;100.00
65832;BME280;52593;42.648;23.332;2024-03-02T06:45:43;93993.03;;;7.16;100.00
65832;BME280;52593;42.648;23.332;2024-03-02T06:48:09;93984.13;;;7.32;100.00
65832;BME280;52593;42.648;23.332;2024-03-02T06:50:34;93978.09;;;7.38;100.00
65832;BME280;52593;42.648;23.332;2024-03-02T06:53:00;93984.69;;;7.42;100.00
65832;BME280;52593;42.648;23.332;2024-03-02T06:55:25;93990.88;;;7.58;100.00
65832;BME280;52593;42.648;23.332;2024-03-02T06:57:51;93986.50;;;7.65;100.00
65832;BME280;52593;42.648;23.332;2024-03-02T07:00:17;93989.53;;;7.62;100.00
65832;BME280;52593;42.648;23.332;2024-03-02T07:02:44;94001.72;;;7.56;100.00
65832;BME280;52593;42.648;23.332;2024-03-02T07:05:10;93988.38;;;7.41;100.00
65832;BME280;52593;42.648;23.332;2024-03-02T07:07:35;93972.41;;;7.41;100.00
65832;BME280;52593;42.648;23.332;2024-03-02T07:10:04;93997.00;;;7.43;100.00
65832;BME280;52593;42.648;23.332;2024-03-02T07:12:36;93988.91;;;7.37;100.00
65832;BME280;52593;42.648;23.332;2024-03-02T07:15:04;93996.22;;;7.35;100.00
65832;BME280;52593;42.648;23.332;2024-03-02T07:17:43;93996.63;;;7.46;100.00
65832;BME280;52593;42.648;23.332;2024-03-02T07:20:09;94005.81;;;7.44;100.00
65832;BME280;52593;42.648;23.332;2024-03-02T07:22:37;93998.22;;;7.56;100.00
65832;BME280;52593;42.648;23.332;2024-03-02T07:25:03;94001.34;;;7.59;100.00
65832;BME280;52593;42.648;23.332;2024-03-02T07:27:30;93996.88;;;7.60;100.00
65832;BME280;52593;42.648;23.332;2024-03-02T07:29:56;93996.88;;;7.60;100.00
65832;BME280;52593;42.648;23.332;2024-03-02T07:32:22;93991.06;;;7.33;100.00
65832;BME280;52593;42.648;23.332;2024-03-02T07:34:47;94005.31;;;7.63;100.00
65832;BME280;52593;42.648;23.332;2024-03-02T07:37:13;94001.69;;;7.41;100.00
65832;BME280;52593;42.648;23.332;2024-03-02T07:39:39;93995.13;;;7.29;100.00
65832;BME280;52593;42.648;23.332;2024-03-02T07:42:05;94008.34;;;7.37;100.00
65832;BME280;52593;42.648;23.332;2024-03-02T07:44:31;94002.84;;;7.62;100.00
65832;BME280;52593;42.648;23.332;2024-03-02T07:46:56;94006.94;;;7.49;100.00
65832;BME280;52593;42.648;23.332;2024-03-02T07:49:22;94016.50;;;7.59;100.00
65832;BME280;52593;42.648;23.332;2024-03-02T07:51:47;94017.09;;;7.69;100.00
65832;BME280;52593;42.648;23.332;2024-03-02T07:54:13;94010.69;;;7.78;100.00
65832;BME280;52593;42.648;23.332;2024-03-02T07:56:38;94020.50;;;8.01;98.72
65832;BME280;52593;42.648;23.332;2024-03-02T07:59:04;94019.50;;;7.79;99.30
65832;BME280;52593;42.648;23.332;2024-03-02T08:01:31;94022.72;;;7.74;99.96
65832;BME280;52593;42.648;23.332;2024-03-02T08:03:58;94020.16;;;7.58;100.00
65832;BME280;52593;42.648;23.332;2024-03-02T08:06:27;94021.19;;;7.57;100.00
65832;BME280;52593;42.648;23.332;2024-03-02T08:09:00;94022.19;;;7.56;100.00
65832;BME280;52593;42.648;23.332;2024-03-02T08:11:26;94024.84;;;7.79;100.00
65832;BME280;52593;42.648;23.332;2024-03-02T08:13:56;94023.13;;;7.86;100.00
65832;BME280;52593;42.648;23.332;2024-03-02T08:16:24;94028.72;;;7.91;100.00
65832;BME280;52593;42.648;23.332;2024-03-02T08:18:52;94025.97;;;7.84;100.00
65832;BME280;52593;42.648;23.332;2024-03-02T08:21:18;94032.81;;;7.79;100.00
65832;BME280;52593;42.648;23.332;2024-03-02T08:23:43;94024.75;;;7.72;100.00
65832;BME280;52593;42.648;23.332;2024-03-02T08:26:09;94031.50;;;7.60;100.00
65832;BME280;52593;42.648;23.332;2024-03-02T08:28:35;94033.13;;;7.61;100.00
65832;BME280;52593;42.648;23.332;2024-03-02T08:31:06;94022.72;;;7.51;100.00
65832;BME280;52593;42.648;23.332;2024-03-02T08:33:32;94026.91;;;7.92;100.00
65832;BME280;52593;42.648;23.332;2024-03-02T08:35:58;94022.50;;;7.99;100.00
65832;BME280;52593;42.648;23.332;2024-03-02T08:38:24;94013.41;;;8.08;100.00
65832;BME280;52593;42.648;23.332;2024-03-02T08:40:50;94024.47;;;8.20;100.00
65832;BME280;52593;42.648;23.332;2024-03-02T08:43:16;94016.50;;;8.35;100.00
65832;BME280;52593;42.648;23.332;2024-03-02T08:45:41;94023.88;;;8.48;99.79
65832;BME280;52593;42.648;23.332;2024-03-02T08:48:07;94013.28;;;8.39;99.57
65832;BME280;52593;42.648;23.332;2024-03-02T08:50:36;94019.84;;;8.52;99.58
65832;BME280;52593;42.648;23.332;2024-03-02T08:53:03;94025.63;;;8.55;99.46
65832;BME280;52593;42.648;23.332;2024-03-02T08:55:29;94021.41;;;8.76;98.24
65832;BME280;52593;42.648;23.332;2024-03-02T08:57:55;94014.31;;;8.68;97.57
65832;BME280;52593;42.648;23.332;2024-03-02T09:00:21;94023.56;;;9.02;96.93
65832;BME280;52593;42.648;23.332;2024-03-02T09:02:46;94014.06;;;9.15;96.13
65832;BME280;52593;42.648;23.332;2024-03-02T09:05:12;94012.97;;;9.09;95.04
65832;BME280;52593;42.648;23.332;2024-03-02T09:07:37;94018.78;;;8.98;96.22
65832;BME280;52593;42.648;23.332;2024-03-02T09:10:07;94021.69;;;9.18;94.62
65832;BME280;52593;42.648;23.332;2024-03-02T09:12:33;94017.38;;;9.17;94.70
65832;BME280;52593;42.648;23.332;2024-03-02T09:15:00;94030.25;;;9.13;94.98
65832;BME280;52593;42.648;23.332;2024-03-02T09:17:26;94025.59;;;9.37;93.46
65832;BME280;52593;42.648;23.332;2024-03-02T09:19:51;94024.41;;;9.39;92.75
65832;BME280;52593;42.648;23.332;2024-03-02T09:22:21;94038.28;;;9.50;92.96
65832;BME280;52593;42.648;23.332;2024-03-02T09:24:46;94033.44;;;9.60;91.98
65832;BME280;52593;42.648;23.332;2024-03-02T09:27:12;94027.78;;;9.48;89.25
65832;BME280;52593;42.648;23.332;2024-03-02T09:29:38;94028.00;;;9.32;89.42
65832;BME280;52593;42.648;23.332;2024-03-02T09:32:08;94028.75;;;9.25;88.05
65832;BME280;52593;42.648;23.332;2024-03-02T09:34:33;94028.06;;;9.02;91.16
65832;BME280;52593;42.648;23.332;2024-03-02T09:36:59;94036.50;;;9.20;90.28
65832;BME280;52593;42.648;23.332;2024-03-02T09:39:25;94035.41;;;9.15;90.95
65832;BME280;52593;42.648;23.332;2024-03-02T09:41:51;94032.81;;;9.21;89.31
65832;BME280;52593;42.648;23.332;2024-03-02T09:44:17;94037.88;;;9.31;89.21
65832;BME280;52593;42.648;23.332;2024-03-02T09:46:43;94036.34;;;9.22;90.08
65832;BME280;52593;42.648;23.332;2024-03-02T09:49:10;94038.09;;;9.00;90.69
65832;BME280;52593;42.648;23.332;2024-03-02T09:51:37;94039.47;;;8.96;92.39
65832;BME280;52593;42.648;23.332;2024-03-02T09:54:02;94032.03;;;8.91;92.15
65832;BME280;52593;42.648;23.332;2024-03-02T09:56:28;94036.09;;;8.87;91.85
65832;BME280;52593;42.648;23.332;2024-03-02T09:58:54;94034.63;;;8.54;93.50
65832;BME280;52593;42.648;23.332;2024-03-02T10:01:19;94043.56;;;8.62;94.85
65832;BME280;52593;42.648;23.332;2024-03-02T10:03:44;94043.66;;;8.68;94.85
65832;BME280;52593;42.648;23.332;2024-03-02T10:06:21;94043.09;;;8.73;94.34
65832;BME280;52593;42.648;23.332;2024-03-02T10:08:47;94035.25;;;8.86;93.13
65832;BME280;52593;42.648;23.332;2024-03-02T10:11:32;94037.75;;;8.88;94.55
65832;BME280;52593;42.648;23.332;2024-03-02T10:14:08;94035.44;;;9.00;95.21
65832;BME280;52593;42.648;23.332;2024-03-02T10:16:35;94043.38;;;8.93;95.85
65832;BME280;52593;42.648;23.332;2024-03-02T10:21:44;94044.19;;;8.79;96.43
65832;BME280;52593;42.648;23.332;2024-03-02T10:24:10;94045.59;;;8.60;94.71
65832;BME280;52593;42.648;23.332;2024-03-02T10:26:35;94039.06;;;8.47;96.46
65832;BME280;52593;42.648;23.332;2024-03-02T10:29:01;94035.06;;;8.43;97.22
65832;BME280;52593;42.648;23.332;2024-03-02T10:31:27;94029.16;;;8.33;98.61
65832;BME280;52593;42.648;23.332;2024-03-02T10:33:57;94043.50;;;8.32;100.00
65832;BME280;52593;42.648;23.332;2024-03-02T10:36:23;94041.41;;;8.42;100.00
65832;BME280;52593;42.648;23.332;2024-03-02T10:38:51;94037.69;;;8.28;99.93
65832;BME280;52593;42.648;23.332;2024-03-02T10:41:23;94032.75;;;8.40;98.47
65832;BME280;52593;42.648;23.332;2024-03-02T10:43:51;94038.56;;;8.29;98.13
65832;BME280;52593;42.648;23.332;2024-03-02T10:46:19;94032.56;;;8.27;98.61
65832;BME280;52593;42.648;23.332;2024-03-02T10:48:46;94031.66;;;8.19;100.00
65832;BME280;52593;42.648;23.332;2024-03-02T10:51:12;94024.28;;;8.21;100.00
65832;BME280;52593;42.648;23.332;2024-03-02T10:53:37;94023.56;;;8.28;100.00
65832;BME280;52593;42.648;23.332;2024-03-02T10:56:07;94030.31;;;8.53;100.00
65832;BME280;52593;42.648;23.332;2024-03-02T10:58:33;94027.34;;;8.48;99.40
65832;BME280;52593;42.648;23.332;2024-03-02T11:01:02;94023.25;;;8.46;99.95
65832;BME280;52593;42.648;23.332;2024-03-02T11:03:29;94021.56;;;8.45;100.00
65832;BME280;52593;42.648;23.332;2024-03-02T11:05:58;94019.72;;;8.45;100.00
65832;BME280;52593;42.648;23.332;2024-03-02T11:08:25;94019.78;;;8.37;100.00
65832;BME280;52593;42.648;23.332;2024-03-02T11:10:58;94016.56;;;8.27;100.00
65832;BME280;52593;42.648;23.332;2024-03-02T11:13:33;94014.88;;;7.96;100.00
65832;BME280;52593;42.648;23.332;2024-03-02T11:16:03;94021.84;;;7.97;100.00
65832;BME280;52593;42.648;23.332;2024-03-02T11:18:31;94021.41;;;7.93;100.00
65832;BME280;52593;42.648;23.332;2024-03-02T11:20:59;94008.28;;;8.07;100.00
65832;BME280;52593;42.648;23.332;2024-03-02T11:23:34;94027.38;;;7.95;100.00
65832;BME280;52593;42.648;23.332;2024-03-02T11:26:22;94024.38;;;7.75;100.00
65832;BME280;52593;42.648;23.332;2024-03-02T11:28:50;94007.00;;;7.79;100.00
65832;BME280;52593;42.648;23.332;2024-03-02T11:31:16;94018.16;;;7.83;100.00
65832;BME280;52593;42.648;23.332;2024-03-02T11:33:42;94016.44;;;8.05;100.00
65832;BME280;52593;42.648;23.332;2024-03-02T11:36:08;94014.53;;;8.14;100.00
65832;BME280;52593;42.648;23.332;2024-03-02T11:38:35;94007.00;;;8.17;100.00
65832;BME280;52593;42.648;23.332;2024-03-02T11:41:10;94008.03;;;8.16;100.00
65832;BME280;52593;42.648;23.332;2024-03-02T11:43:40;94007.00;;;8.17;100.00
65832;BME280;52593;42.648;23.332;2024-03-02T11:46:06;94009.41;;;8.27;100.00
65832;BME280;52593;42.648;23.332;2024-03-02T11:48:39;94016.75;;;8.40;100.00
65832;BME280;52593;42.648;23.332;2024-03-02T11:51:04;94016.88;;;8.32;100.00
65832;BME280;52593;42.648;23.332;2024-03-02T11:53:30;94014.84;;;8.34;100.00
65832;BME280;52593;42.648;23.332;2024-03-02T11:55:58;94017.59;;;8.26;100.00
65832;BME280;52593;42.648;23.332;2024-03-02T11:58:24;94020.06;;;8.27;100.00
65832;BME280;52593;42.648;23.332;2024-03-02T12:00:55;94009.28;;;8.20;100.00
65832;BME280;52593;42.648;23.332;2024-03-02T12:03:25;94020.03;;;8.12;100.00
65832;BME280;52593;42.648;23.332;2024-03-02T12:05:52;94016.28;;;8.21;100.00
65832;BME280;52593;42.648;23.332;2024-03-02T12:08:18;94008.84;;;8.17;100.00
65832;BME280;52593;42.648;23.332;2024-03-02T12:10:55;94013.06;;;8.11;100.00
65832;BME280;52593;42.648;23.332;2024-03-02T12:13:21;94016.44;;;8.05;100.00
65832;BME280;52593;42.648;23.332;2024-03-02T12:15:46;94013.91;;;7.89;100.00
65832;BME280;52593;42.648;23.332;2024-03-02T12:18:12;94014.59;;;7.91;100.00
65832;BME280;52593;42.648;23.332;2024-03-02T12:20:37;94011.41;;;8.10;100.00
65832;BME280;52593;42.648;23.332;2024-03-02T12:23:04;94011.59;;;8.09;100.00
65832;BME280;52593;42.648;23.332;2024-03-02T12:25:31;94020.13;;;8.19;100.00
65832;BME280;52593;42.648;23.332;2024-03-02T12:28:00;94024.75;;;8.25;100.00
65832;BME280;52593;42.648;23.332;2024-03-02T12:30:29;94020.25;;;8.40;100.00
65832;BME280;52593;42.648;23.332;2024-03-02T12:32:54;94018.44;;;8.41;100.00
65832;BME280;52593;42.648;23.332;2024-03-02T12:35:20;94022.97;;;8.55;99.81
65832;BME280;52593;42.648;23.332;2024-03-02T12:37:50;94006.31;;;8.53;99.09
65832;BME280;52593;42.648;23.332;2024-03-02T12:40:17;94014.97;;;8.55;98.93
65832;BME280;52593;42.648;23.332;2024-03-02T12:42:44;94013.13;;;8.56;99.94
65832;BME280;52593;42.648;23.332;2024-03-02T12:45:10;94011.09;;;8.58;98.68
65832;BME280;52593;42.648;23.332;2024-03-02T12:47:36;94005.78;;;8.58;98.60
65832;BME280;52593;42.648;23.332;2024-03-02T12:50:03;94017.19;;;8.52;100.00
65832;BME280;52593;42.648;23.332;2024-03-02T12:52:30;94014.31;;;8.53;99.45
65832;BME280;52593;42.648;23.332;2024-03-02T12:54:58;94018.63;;;8.39;100.00
65832;BME280;52593;42.648;23.332;2024-03-02T12:57:28;94018.34;;;8.49;100.00